Time;durP1;ratioP1;P1;durP2;ratioP2;P2;SDS_P1;SDS_P2;PMS_P1;PMS_P2;Temp;Humidity;BMP_temperature;BMP_pressure;BME280_temperature;BME280_humidity;BME280_pressure;Samples;Min_cycle;Max_cycle;Signal;HPM_P1;HPM_P2
2023/06/25 00:00:00;;;;;;;7.40;3.57;;;17.00;99.90;;;;;;5003829;28;20224;-92
2023/06/25 00:02:25;;;;;;;6.20;3.87;;;17.00;99.90;;;;;;5018856;28;20177;-92
2023/06/25 00:04:51;;;;;;;6.00;3.23;;;17.00;99.90;;;;;;5035263;28;20216;-92
2023/06/25 00:07:17;;;;;;;7.53;4.30;;;17.00;99.90;;;;;;5035238;28;20239;-92
2023/06/25 00:09:53;;;;;;;6.03;3.60;;;16.90;99.90;;;;;;5018559;28;20207;-92
2023/06/25 00:12:18;;;;;;;6.57;3.50;;;17.00;99.90;;;;;;5036295;28;20172;-92
2023/06/25 00:14:44;;;;;;;4.67;3.77;;;16.80;99.90;;;;;;5018607;28;20249;-92
2023/06/25 00:17:09;;;;;;;6.57;4.13;;;16.80;99.90;;;;;;5017667;28;20176;-92
2023/06/25 00:19:35;;;;;;;6.30;3.83;;;16.70;99.90;;;;;;5018326;28;20693;-92
2023/06/25 00:22:00;;;;;;;7.90;4.33;;;16.70;99.90;;;;;;5018316;28;20642;-92
2023/06/25 00:24:26;;;;;;;4.90;3.63;;;16.70;99.90;;;;;;5002624;28;20728;-92
2023/06/25 00:26:51;;;;;;;5.70;4.07;;;16.60;99.90;;;;;;5007849;28;20199;-92
2023/06/25 00:29:17;;;;;;;5.13;4.00;;;16.60;99.90;;;;;;5018165;28;20567;-92
2023/06/25 00:31:42;;;;;;;4.93;3.37;;;16.70;99.90;;;;;;5018284;28;20186;-92
2023/06/25 00:34:08;;;;;;;6.57;3.70;;;16.60;99.90;;;;;;5014985;28;20185;-92
2023/06/25 00:36:36;;;;;;;5.00;3.63;;;16.60;99.90;;;;;;5015086;28;20255;-92
2023/06/25 00:39:03;;;;;;;7.63;3.27;;;16.60;99.90;;;;;;5014850;28;20197;-92
2023/06/25 00:41:29;;;;;;;5.97;3.77;;;16.50;99.90;;;;;;5017806;28;20180;-92
2023/06/25 00:43:54;;;;;;;7.03;3.97;;;16.50;99.90;;;;;;5006424;28;20184;-92
2023/06/25 00:46:23;;;;;;;6.33;3.80;;;16.40;99.90;;;;;;5017719;28;20180;-92
2023/06/25 00:48:49;;;;;;;5.50;3.70;;;16.50;99.90;;;;;;5017794;28;20203;-92
2023/06/25 00:51:16;;;;;;;5.87;3.50;;;16.50;99.90;;;;;;5017860;28;20192;-92
2023/06/25 00:53:42;;;;;;;4.73;3.43;;;16.40;99.90;;;;;;5017439;28;20214;-92
2023/06/25 00:56:07;;;;;;;5.53;3.83;;;16.40;99.90;;;;;;5017301;28;20204;-92
2023/06/25 00:58:37;;;;;;;4.63;3.77;;;16.40;99.90;;;;;;5017592;28;20208;-92
2023/06/25 01:01:05;;;;;;;4.57;3.67;;;16.30;99.90;;;;;;5017659;28;20180;-92
2023/06/25 01:03:39;;;;;;;6.73;4.13;;;16.30;99.90;;;;;;4999370;28;20183;-92
2023/06/25 01:06:15;;;;;;;5.47;3.60;;;16.30;99.90;;;;;;4998070;28;20215;-92
2023/06/25 01:08:49;;;;;;;6.90;4.53;;;16.20;99.90;;;;;;5008260;28;20200;-92
2023/06/25 01:11:15;;;;;;;5.10;4.00;;;16.20;99.90;;;;;;5017545;28;20267;-92
2023/06/25 01:13:40;;;;;;;4.90;3.80;;;16.10;99.90;;;;;;5017212;28;20215;-92
2023/06/25 01:19:30;;;;;;;5.23;3.80;;;16.00;99.90;;;;;;5015001;28;20276;-91
2023/06/25 01:21:59;;;;;;;6.87;3.93;;;16.00;99.90;;;;;;4997381;28;20177;-92
2023/06/25 01:24:29;;;;;;;4.27;3.67;;;16.00;99.90;;;;;;5022280;28;20179;-92
2023/06/25 01:26:56;;;;;;;6.27;3.63;;;15.90;99.90;;;;;;4997077;28;20177;-91
2023/06/25 01:29:22;;;;;;;4.87;3.63;;;15.90;99.90;;;;;;5016225;28;20204;-92
2023/06/25 01:31:51;;;;;;;6.10;3.77;;;15.90;99.90;;;;;;5032712;28;20230;-91
2023/06/25 01:34:23;;;;;;;5.83;3.67;;;16.00;99.90;;;;;;5028662;28;20185;-91
2023/06/25 01:36:50;;;;;;;8.50;4.13;;;15.90;99.90;;;;;;5041370;28;20189;-91
2023/06/25 01:39:20;;;;;;;7.87;4.10;;;15.90;99.90;;;;;;5047309;28;20693;-92
2023/06/25 01:41:46;;;;;;;8.40;3.80;;;16.00;99.90;;;;;;5020372;28;20180;-92
2023/06/25 01:44:32;;;;;;;5.70;3.73;;;15.90;99.90;;;;;;5017008;28;20260;-92
2023/06/25 01:46:58;;;;;;;4.57;3.33;;;15.90;99.90;;;;;;5006177;28;20195;-91
2023/06/25 01:49:24;;;;;;;4.53;3.60;;;15.80;99.90;;;;;;5016712;28;20199;-92
2023/06/25 01:51:50;;;;;;;4.73;3.83;;;15.80;99.90;;;;;;5016775;28;20164;-92
2023/06/25 01:54:15;;;;;;;5.27;4.40;;;15.90;99.90;;;;;;5016650;28;20263;-92
2023/06/25 01:56:42;;;;;;;5.17;4.10;;;15.80;99.90;;;;;;5016404;28;20299;-92
2023/06/25 01:59:08;;;;;;;5.40;4.17;;;15.90;99.90;;;;;;5035073;28;20188;-93
2023/06/25 02:01:34;;;;;;;5.73;4.47;;;15.80;99.90;;;;;;5016034;28;20579;-92
2023/06/25 02:04:00;;;;;;;5.63;4.00;;;15.80;99.90;;;;;;5033649;28;20180;-92
2023/06/25 02:06:25;;;;;;;7.87;3.77;;;15.80;99.90;;;;;;5016835;28;20260;-92
2023/06/25 02:08:51;;;;;;;5.93;3.63;;;15.80;99.90;;;;;;5014059;28;20268;-92
2023/06/25 02:11:17;;;;;;;5.47;3.77;;;15.80;99.90;;;;;;5029949;28;20172;-93
2023/06/25 02:13:43;;;;;;;6.17;3.87;;;15.80;99.90;;;;;;5013358;28;20181;-92
2023/06/25 02:16:08;;;;;;;6.57;3.47;;;15.80;99.90;;;;;;5030735;28;20212;-92
2023/06/25 02:18:35;;;;;;;4.50;3.67;;;15.80;99.90;;;;;;5023573;28;20211;-92
2023/06/25 02:21:01;;;;;;;6.20;4.00;;;15.80;99.90;;;;;;5024108;28;20188;-92
2023/06/25 02:23:26;;;;;;;5.63;3.97;;;15.90;99.90;;;;;;5038945;28;20188;-92
2023/06/25 02:25:52;;;;;;;5.63;3.53;;;15.70;99.90;;;;;;5027199;28;20535;-92
2023/06/25 02:28:18;;;;;;;5.07;3.20;;;15.70;99.90;;;;;;5022534;28;20197;-92
2023/06/25 02:30:44;;;;;;;6.07;3.67;;;15.70;99.90;;;;;;5024593;28;20179;-92
2023/06/25 02:33:10;;;;;;;9.43;4.17;;;15.70;99.90;;;;;;5025533;28;20172;-92
2023/06/25 02:35:36;;;;;;;5.03;3.63;;;15.60;99.90;;;;;;5024174;28;20215;-92
2023/06/25 02:38:02;;;;;;;5.17;3.87;;;15.80;99.90;;;;;;5016107;28;20275;-92
2023/06/25 02:40:28;;;;;;;5.70;3.60;;;15.60;99.90;;;;;;5019665;28;20180;-93
2023/06/25 02:42:57;;;;;;;4.57;4.10;;;15.50;99.90;;;;;;5039946;28;20168;-92
2023/06/25 02:45:23;;;;;;;7.50;4.50;;;15.50;99.90;;;;;;5022309;28;20187;-92
2023/06/25 02:47:49;;;;;;;6.33;3.77;;;15.60;99.90;;;;;;5021909;28;20190;-92
2023/06/25 02:50:15;;;;;;;6.60;4.30;;;15.50;99.90;;;;;;5039830;28;20208;-92
2023/06/25 02:52:41;;;;;;;5.93;3.87;;;15.50;99.90;;;;;;5021390;28;20180;-93
2023/06/25 02:55:07;;;;;;;4.47;3.50;;;15.40;99.90;;;;;;5039115;28;20249;-92
2023/06/25 02:57:33;;;;;;;5.60;3.77;;;15.40;99.90;;;;;;5022260;28;20191;-92
2023/06/25 02:59:59;;;;;;;6.30;3.73;;;15.40;99.90;;;;;;5038270;28;20200;-92
2023/06/25 03:02:25;;;;;;;4.13;3.47;;;15.40;99.90;;;;;;5022715;28;20191;-92
2023/06/25 03:04:51;;;;;;;5.10;3.40;;;15.30;99.90;;;;;;5021536;28;20557;-92
2023/06/25 03:07:17;;;;;;;5.77;4.00;;;15.30;99.90;;;;;;5022222;28;20183;-92
2023/06/25 03:09:43;;;;;;;5.87;3.90;;;15.30;99.90;;;;;;5039821;28;20212;-93
2023/06/25 03:12:09;;;;;;;4.17;3.77;;;15.30;99.90;;;;;;5022524;28;20191;-92
2023/06/25 03:14:36;;;;;;;4.77;3.87;;;15.30;99.90;;;;;;5021330;28;20264;-92
2023/06/25 03:17:02;;;;;;;5.60;3.70;;;15.30;99.90;;;;;;5022135;28;20179;-93
2023/06/25 03:19:28;;;;;;;4.27;3.83;;;15.30;99.90;;;;;;5021242;28;20231;-92
2023/06/25 03:21:53;;;;;;;6.13;4.00;;;15.30;99.90;;;;;;5021917;28;20180;-92
2023/06/25 03:24:19;;;;;;;4.87;4.27;;;15.20;99.90;;;;;;5020241;28;20172;-92
2023/06/25 03:26:45;;;;;;;6.13;3.80;;;15.40;99.90;;;;;;5021935;28;20203;-92
2023/06/25 03:29:10;;;;;;;8.17;4.17;;;15.20;99.90;;;;;;5021161;28;20208;-92
2023/06/25 03:31:36;;;;;;;4.80;4.07;;;15.10;99.90;;;;;;5039300;28;20552;-92
2023/06/25 03:34:01;;;;;;;5.97;4.13;;;15.10;99.90;;;;;;5020112;28;20594;-92
2023/06/25 03:36:27;;;;;;;5.70;4.20;;;15.10;99.90;;;;;;5021534;28;20283;-92
2023/06/25 03:38:53;;;;;;;6.07;4.27;;;15.10;99.90;;;;;;5022071;28;20196;-92
2023/06/25 03:41:18;;;;;;;5.87;4.20;;;15.10;99.90;;;;;;5022123;28;20176;-92
2023/06/25 03:43:44;;;;;;;4.80;3.93;;;15.00;99.90;;;;;;5021484;28;20200;-92
2023/06/25 03:46:09;;;;;;;5.17;3.57;;;15.10;99.90;;;;;;5022458;28;20176;-92
2023/06/25 03:48:35;;;;;;;4.87;4.37;;;15.10;99.90;;;;;;5020968;28;20302;-92
2023/06/25 03:51:00;;;;;;;6.20;4.10;;;15.10;99.90;;;;;;5021030;28;20208;-92
2023/06/25 03:53:26;;;;;;;4.77;4.23;;;15.10;99.90;;;;;;5017515;28;20279;-92
2023/06/25 03:55:52;;;;;;;4.90;4.07;;;15.10;99.90;;;;;;5034926;28;20196;-92
2023/06/25 03:58:18;;;;;;;4.83;4.20;;;15.10;99.90;;;;;;5033816;28;20238;-92
2023/06/25 04:00:44;;;;;;;5.20;4.00;;;15.10;99.90;;;;;;5018530;28;20665;-92
2023/06/25 04:03:10;;;;;;;6.67;4.30;;;15.10;99.90;;;;;;5017195;28;20176;-92
2023/06/25 04:05:36;;;;;;;7.37;3.90;;;15.10;99.90;;;;;;5018764;28;20642;-92
2023/06/25 04:08:01;;;;;;;6.77;3.57;;;15.10;99.90;;;;;;5017386;28;20230;-92
2023/06/25 04:10:27;;;;;;;5.30;3.73;;;15.10;99.90;;;;;;5034217;28;20518;-92
2023/06/25 04:12:53;;;;;;;9.07;4.40;;;15.10;99.90;;;;;;5035071;28;20180;-92
2023/06/25 04:15:18;;;;;;;5.10;3.77;;;15.10;99.90;;;;;;5018329;28;20211;-92
2023/06/25 04:17:46;;;;;;;5.10;4.07;;;15.10;99.90;;;;;;5017872;28;20638;-92
2023/06/25 04:20:12;;;;;;;7.50;4.20;;;15.10;99.90;;;;;;5035856;28;20185;-92
2023/06/25 04:22:37;;;;;;;6.13;4.03;;;15.10;99.90;;;;;;5017154;28;20191;-92
2023/06/25 04:25:03;;;;;;;5.77;4.33;;;15.10;99.90;;;;;;5018112;28;20262;-92
2023/06/25 04:27:29;;;;;;;5.20;4.17;;;15.10;99.90;;;;;;5015600;28;20184;-92
2023/06/25 04:29:54;;;;;;;5.70;4.03;;;15.10;99.90;;;;;;5017335;28;20265;-92
2023/06/25 04:32:20;;;;;;;4.93;3.83;;;15.20;99.90;;;;;;5018084;28;20189;-92
2023/06/25 04:34:45;;;;;;;5.17;3.93;;;15.20;99.90;;;;;;5014436;28;20209;-92
2023/06/25 04:37:11;;;;;;;5.73;3.67;;;15.40;99.90;;;;;;4998115;28;20225;-92
2023/06/25 04:39:39;;;;;;;4.77;4.00;;;15.20;99.90;;;;;;5015172;28;20200;-92
2023/06/25 04:42:05;;;;;;;5.47;3.47;;;15.20;99.90;;;;;;5017910;28;20200;-92
2023/06/25 04:44:31;;;;;;;6.63;3.97;;;15.30;99.90;;;;;;5017803;28;20172;-93
2023/06/25 04:46:56;;;;;;;5.90;4.50;;;15.30;99.90;;;;;;5017690;28;20168;-92
2023/06/25 04:49:22;;;;;;;5.20;3.97;;;15.30;99.90;;;;;;5017785;28;20283;-92
2023/06/25 04:51:48;;;;;;;4.57;3.63;;;15.10;99.90;;;;;;5017570;28;20642;-92
2023/06/25 04:54:13;;;;;;;8.23;4.10;;;15.30;99.90;;;;;;5017557;28;20250;-93
2023/06/25 04:56:39;;;;;;;7.30;3.90;;;15.30;99.90;;;;;;5013969;28;20370;-92
2023/06/25 04:59:05;;;;;;;5.70;4.00;;;15.40;99.90;;;;;;5014297;28;20193;-92
2023/06/25 05:01:30;;;;;;;6.07;3.77;;;15.40;99.90;;;;;;5014163;28;20225;-92
2023/06/25 05:03:56;;;;;;;6.63;4.07;;;15.40;99.90;;;;;;5013621;28;20173;-92
2023/06/25 05:06:21;;;;;;;5.77;4.03;;;15.40;99.90;;;;;;5015234;28;20264;-92
2023/06/25 05:08:47;;;;;;;7.73;3.83;;;15.50;99.90;;;;;;5013866;28;20287;-92
2023/06/25 05:11:12;;;;;;;5.23;4.13;;;15.50;99.90;;;;;;5013847;28;20185;-92
2023/06/25 05:13:38;;;;;;;7.17;4.10;;;15.50;99.90;;;;;;5013878;28;20272;-92
2023/06/25 05:16:04;;;;;;;5.80;4.03;;;15.60;99.90;;;;;;5017202;28;20550;-92
2023/06/25 05:18:29;;;;;;;5.10;4.43;;;15.70;99.90;;;;;;5032696;28;20200;-93
2023/06/25 05:20:55;;;;;;;6.37;4.30;;;15.70;99.90;;;;;;5016520;28;20235;-92
2023/06/25 05:23:21;;;;;;;6.77;4.27;;;15.70;99.90;;;;;;5015673;28;20180;-92
2023/06/25 05:25:47;;;;;;;5.17;4.20;;;15.80;99.90;;;;;;5016083;28;20538;-92
2023/06/25 05:28:12;;;;;;;5.50;4.50;;;16.40;99.90;;;;;;5014994;28;20279;-92
2023/06/25 05:30:38;;;;;;;5.07;4.40;;;16.40;99.90;;;;;;5007720;28;20215;-92
2023/06/25 05:33:04;;;;;;;5.53;4.77;;;16.00;99.90;;;;;;5013202;28;20188;-93
2023/06/25 05:35:29;;;;;;;6.40;4.67;;;15.40;99.90;;;;;;5016841;28;20693;-93
2023/06/25 05:37:58;;;;;;;5.80;4.67;;;16.10;99.90;;;;;;5034298;28;20242;-93
2023/06/25 05:40:27;;;;;;;6.93;4.77;;;16.10;99.90;;;;;;5033282;28;20204;-93
2023/06/25 05:42:54;;;;;;;6.13;5.00;;;16.20;99.90;;;;;;5016734;28;20205;-93
2023/06/25 05:45:20;;;;;;;8.87;4.97;;;16.70;99.90;;;;;;5013251;28;20253;-93
2023/06/25 05:47:46;;;;;;;7.00;5.77;;;16.40;99.90;;;;;;4997399;28;20188;-93
2023/06/25 05:50:11;;;;;;;6.60;5.83;;;17.00;99.90;;;;;;5001464;28;20196;-92
2023/06/25 05:52:37;;;;;;;7.57;6.70;;;16.50;99.90;;;;;;5020839;28;20211;-94
2023/06/25 05:55:03;;;;;;;6.33;5.67;;;16.70;99.90;;;;;;5043198;28;20768;-94
2023/06/25 05:57:30;;;;;;;7.27;6.57;;;16.80;99.90;;;;;;5031860;28;20188;-94
2023/06/25 05:59:55;;;;;;;6.70;6.00;;;16.90;99.90;;;;;;5028702;28;20196;-94
2023/06/25 06:02:21;;;;;;;6.43;5.67;;;17.10;99.90;;;;;;5037162;28;20236;-94
2023/06/25 06:04:46;;;;;;;7.10;5.63;;;17.30;99.90;;;;;;5035073;28;20260;-94
2023/06/25 06:07:12;;;;;;;6.93;5.87;;;18.30;99.90;;;;;;5053143;28;20180;-94
2023/06/25 06:09:37;;;;;;;7.37;6.20;;;17.80;99.90;;;;;;5054262;28;20203;-95
2023/06/25 06:12:04;;;;;;;8.60;5.57;;;17.80;99.90;;;;;;5055395;28;20180;-95
2023/06/25 06:14:29;;;;;;;6.70;5.80;;;17.90;99.90;;;;;;5054142;28;20180;-94
2023/06/25 06:16:57;;;;;;;7.03;6.10;;;17.90;99.90;;;;;;5055823;28;20203;-95
2023/06/25 06:19:23;;;;;;;6.30;5.70;;;18.10;99.90;;;;;;5055423;28;20195;-95
2023/06/25 06:21:48;;;;;;;8.23;5.70;;;18.50;99.90;;;;;;5031315;28;20188;-94
2023/06/25 06:24:14;;;;;;;9.23;5.33;;;19.20;99.90;;;;;;4997348;28;20180;-94
2023/06/25 06:26:39;;;;;;;7.70;5.70;;;18.40;99.90;;;;;;5013293;28;20626;-93
2023/06/25 06:29:05;;;;;;;7.07;5.57;;;18.50;99.90;;;;;;5016684;28;20235;-94
2023/06/25 06:31:34;;;;;;;6.50;5.80;;;18.60;99.90;;;;;;5015771;28;20188;-93
2023/06/25 06:33:59;;;;;;;7.60;5.60;;;18.70;99.90;;;;;;5015028;28;20188;-94
2023/06/25 06:36:25;;;;;;;6.13;5.17;;;18.80;99.90;;;;;;5016218;28;20581;-93
2023/06/25 06:38:50;;;;;;;6.30;5.23;;;18.90;99.90;;;;;;5018504;28;20198;-93
2023/06/25 06:41:16;;;;;;;8.87;5.67;;;19.00;99.90;;;;;;5036970;28;20184;-95
2023/06/25 06:43:41;;;;;;;8.50;5.07;;;19.10;99.90;;;;;;5039606;28;20207;-93
2023/06/25 06:46:07;;;;;;;5.43;4.60;;;19.50;99.90;;;;;;5039358;28;20247;-94
2023/06/25 06:48:32;;;;;;;8.17;5.07;;;20.20;99.90;;;;;;5039107;28;20260;-94
2023/06/25 06:50:58;;;;;;;6.30;5.20;;;19.20;99.90;;;;;;5040474;28;20282;-95
2023/06/25 06:53:25;;;;;;;6.00;4.70;;;19.50;99.90;;;;;;5039902;28;20176;-96
2023/06/25 06:55:51;;;;;;;8.00;4.80;;;19.80;99.40;;;;;;5040477;28;20188;-95
2023/06/25 06:58:17;;;;;;;7.03;5.33;;;20.70;72.40;;;;;;5039175;28;20227;-95
2023/06/25 07:00:42;;;;;;;5.90;4.60;;;19.80;68.40;;;;;;5039967;28;20169;-96
2023/06/25 07:03:08;;;;;;;6.07;5.17;;;19.80;45.30;;;;;;5039639;28;20169;-96
2023/06/25 07:05:33;;;;;;;5.60;5.00;;;19.90;13.90;;;;;;5040021;28;20174;-96
2023/06/25 07:07:59;;;;;;;6.20;5.07;;;20.30;2.40;;;;;;5039763;28;20178;-95
2023/06/25 07:10:25;;;;;;;5.53;4.73;;;20.60;1.00;;;;;;5039329;28;20210;-95
2023/06/25 07:12:50;;;;;;;5.10;4.60;;;21.30;1.00;;;;;;5039662;28;20232;-96
2023/06/25 07:15:16;;;;;;;7.50;4.83;;;20.40;1.00;;;;;;5037204;28;20279;-95
2023/06/25 07:17:41;;;;;;;6.47;4.67;;;20.50;1.00;;;;;;5035254;28;20172;-95
2023/06/25 07:20:08;;;;;;;6.60;4.80;;;20.60;1.00;;;;;;5035857;28;20197;-95
2023/06/25 07:22:34;;;;;;;5.07;4.53;;;20.50;1.00;;;;;;5037773;28;20174;-95
2023/06/25 07:25:03;;;;;;;6.30;4.80;;;20.70;1.00;;;;;;5037550;28;20188;-95
2023/06/25 07:27:28;;;;;;;6.03;4.67;;;20.70;1.00;;;;;;5040005;28;20224;-94
2023/06/25 07:29:54;;;;;;;6.17;4.57;;;20.80;1.00;;;;;;5026172;28;20259;-93
2023/06/25 07:32:19;;;;;;;6.20;5.00;;;20.80;1.00;;;;;;5019107;28;20183;-93
2023/06/25 07:34:45;;;;;;;7.40;5.23;;;21.10;1.00;;;;;;5018794;28;20624;-92
2023/06/25 07:37:10;;;;;;;7.23;4.83;;;21.10;1.00;;;;;;5019945;28;20587;-93
2023/06/25 07:39:36;;;;;;;5.20;4.70;;;21.20;1.00;;;;;;5019401;28;20216;-92
2023/06/25 07:42:02;;;;;;;5.77;4.57;;;21.30;1.00;;;;;;5019288;28;20195;-92
2023/06/25 07:44:27;;;;;;;6.80;4.53;;;21.30;1.00;;;;;;5017494;28;20646;-92
2023/06/25 07:46:53;;;;;;;5.53;4.20;;;21.40;1.00;;;;;;5018446;28;20183;-93
2023/06/25 07:49:18;;;;;;;6.60;5.63;;;21.50;1.00;;;;;;5036987;28;20678;-92
2023/06/25 07:51:49;;;;;;;5.40;4.80;;;21.60;1.00;;;;;;5023416;28;20172;-94
2023/06/25 07:54:14;;;;;;;5.77;4.53;;;21.70;1.00;;;;;;5040381;28;20200;-95
2023/06/25 07:56:41;;;;;;;7.97;5.23;;;21.90;1.00;;;;;;5032789;28;20220;-95
2023/06/25 07:59:07;;;;;;;6.87;5.10;;;21.90;1.00;;;;;;5034894;28;20196;-95
2023/06/25 08:01:33;;;;;;;5.33;4.80;;;22.00;1.00;;;;;;5033824;28;20187;-95
2023/06/25 08:03:58;;;;;;;4.83;4.37;;;22.70;1.00;;;;;;5037013;28;20176;-95
2023/06/25 08:06:24;;;;;;;5.03;4.53;;;22.10;1.00;;;;;;5052487;28;20168;-95
2023/06/25 08:08:49;;;;;;;5.53;4.43;;;22.20;1.00;;;;;;5054049;28;20210;-95
2023/06/25 08:11:15;;;;;;;7.43;4.93;;;22.30;1.00;;;;;;5034488;28;20204;-95
2023/06/25 08:13:40;;;;;;;5.60;4.50;;;22.40;1.00;;;;;;5031394;28;20245;-95
2023/06/25 08:16:06;;;;;;;7.27;4.60;;;22.50;99.90;;;;;;5031544;28;20212;-95
2023/06/25 08:18:31;;;;;;;6.17;4.73;;;22.70;99.90;;;;;;5034968;28;20200;-94
2023/06/25 08:20:57;;;;;;;5.23;4.17;;;22.80;99.90;;;;;;5019701;28;20184;-95
2023/06/25 08:23:22;;;;;;;4.93;4.37;;;22.80;99.90;;;;;;5018374;28;20176;-94
2023/06/25 08:25:48;;;;;;;5.13;4.53;;;23.20;99.90;;;;;;5032036;28;20173;-94
2023/06/25 08:28:15;;;;;;;7.13;5.17;;;23.20;99.90;;;;;;5034142;28;20232;-95
2023/06/25 08:30:40;;;;;;;4.73;4.23;;;23.20;99.90;;;;;;5033818;28;20188;-95
2023/06/25 08:33:06;;;;;;;7.53;4.67;;;23.40;99.90;;;;;;5035741;28;20176;-95
2023/06/25 08:35:31;;;;;;;5.43;4.43;;;23.40;99.90;;;;;;5034014;28;20208;-95
2023/06/25 08:37:57;;;;;;;5.77;4.27;;;23.60;99.90;;;;;;5038335;28;20156;-95
2023/06/25 08:40:26;;;;;;;5.17;4.67;;;23.80;99.90;;;;;;5037419;28;20223;-95
2023/06/25 08:42:51;;;;;;;6.03;4.00;;;23.90;99.90;;;;;;5037891;28;20176;-95
2023/06/25 08:45:17;;;;;;;7.70;4.67;;;23.80;99.90;;;;;;5036375;28;20176;-94
2023/06/25 08:47:45;;;;;;;4.63;4.10;;;23.80;99.90;;;;;;5040939;28;20231;-93
2023/06/25 08:50:11;;;;;;;7.07;4.60;;;24.00;99.90;;;;;;5032465;28;20204;-95
2023/06/25 08:52:38;;;;;;;7.43;4.10;;;24.50;1.00;;;;;;5033413;28;20186;-95
2023/06/25 08:55:09;;;;;;;4.80;3.90;;;24.40;1.00;;;;;;5054701;28;20200;-95
2023/06/25 08:57:35;;;;;;;4.73;4.23;;;24.50;1.00;;;;;;5052269;28;20188;-95
2023/06/25 09:00:01;;;;;;;7.53;4.60;;;24.60;12.10;;;;;;5052894;28;20187;-95
2023/06/25 09:02:29;;;;;;;5.53;3.87;;;24.70;21.80;;;;;;5047693;28;20180;-95
2023/06/25 09:05:06;;;;;;;4.37;3.70;;;24.90;1.00;;;;;;5055994;28;20176;-95
2023/06/25 09:07:34;;;;;;;6.37;3.57;;;24.90;1.00;;;;;;5052161;28;20191;-95
2023/06/25 09:10:00;;;;;;;7.60;4.30;;;25.00;1.00;;;;;;5052382;28;20200;-94
2023/06/25 09:12:26;;;;;;;5.40;3.80;;;25.20;99.90;;;;;;5053642;28;20199;-95
2023/06/25 09:14:51;;;;;;;7.93;4.17;;;25.30;1.00;;;;;;5055025;28;20208;-95
2023/06/25 09:17:21;;;;;;;8.60;4.00;;;25.30;1.00;;;;;;5047839;28;20173;-95
2023/06/25 09:19:47;;;;;;;4.60;3.90;;;25.50;99.90;;;;;;5053302;28;20277;-96
2023/06/25 09:22:12;;;;;;;4.83;4.33;;;25.90;99.90;;;;;;5055504;28;20173;-95
2023/06/25 09:24:51;;;;;;;7.03;3.80;;;25.70;1.00;;;;;;5055306;28;20248;-95
2023/06/25 09:27:20;;;;;;;6.47;4.13;;;25.70;1.00;;;;;;5055353;28;20156;-96
2023/06/25 09:29:46;;;;;;;5.75;4.32;;;25.80;1.00;;;;;;5054379;28;20218;-95
2023/06/25 09:32:11;;;;;;;7.35;4.20;;;25.80;1.00;;;;;;5054689;28;20168;-95
2023/06/25 09:34:41;;;;;;;4.90;4.20;;;25.80;99.90;;;;;;5051248;28;20176;-94
2023/06/25 09:37:07;;;;;;;5.90;4.25;;;25.80;99.90;;;;;;5037771;28;20217;-93
2023/06/25 09:39:33;;;;;;;4.20;3.80;;;25.90;1.00;;;;;;5034679;28;20326;-94
2023/06/25 09:42:00;;;;;;;6.40;4.18;;;25.90;1.00;;;;;;5033244;28;20222;-91
2023/06/25 09:44:27;;;;;;;8.90;3.80;;;26.00;1.00;;;;;;5016533;28;20187;-92
2023/06/25 09:46:59;;;;;;;5.68;4.03;;;26.10;99.90;;;;;;5033434;28;20176;-92
2023/06/25 09:49:30;;;;;;;4.90;3.95;;;26.30;1.00;;;;;;5032861;28;20677;-92
2023/06/25 09:52:04;;;;;;;5.82;3.60;;;26.30;99.90;;;;;;5035458;28;20160;-92
2023/06/25 09:54:30;;;;;;;6.18;3.78;;;26.40;99.90;;;;;;5036141;28;20681;-92
2023/06/25 09:57:03;;;;;;;6.72;4.10;;;26.80;1.00;;;;;;5034559;28;20226;-92
2023/06/25 09:59:29;;;;;;;5.32;4.43;;;26.60;38.60;;;;;;5033110;28;20274;-92
2023/06/25 10:01:55;;;;;;;6.05;4.20;;;26.70;99.90;;;;;;5033027;28;20176;-92
2023/06/25 10:04:21;;;;;;;5.03;4.40;;;26.80;1.00;;;;;;5033367;28;20562;-92
2023/06/25 10:06:47;;;;;;;4.55;3.90;;;27.00;1.00;;;;;;5048716;28;20183;-95
2023/06/25 10:09:13;;;;;;;7.03;3.97;;;27.10;1.00;;;;;;5052793;28;20238;-95
2023/06/25 10:11:52;;;;;;;6.30;3.83;;;27.00;1.00;;;;;;5050075;28;20186;-95
2023/06/25 10:14:18;;;;;;;7.32;5.28;;;27.00;49.10;;;;;;5048855;28;20172;-95
2023/06/25 10:16:54;;;;;;;6.22;3.80;;;27.10;1.00;;;;;;5051338;28;20246;-95
2023/06/25 10:19:27;;;;;;;4.43;3.95;;;27.00;1.00;;;;;;5049229;28;20669;-94
2023/06/25 10:22:16;;;;;;;5.75;4.05;;;27.10;1.00;;;;;;5053740;28;20164;-95
2023/06/25 10:24:46;;;;;;;4.15;3.78;;;27.20;99.90;;;;;;5051329;28;20195;-95
2023/06/25 10:27:23;;;;;;;5.63;4.30;;;27.30;93.20;;;;;;5039493;28;20176;-95
2023/06/25 10:29:49;;;;;;;4.80;3.50;;;27.30;99.30;;;;;;5035857;28;20191;-95
2023/06/25 10:32:19;;;;;;;4.85;3.65;;;27.40;13.70;;;;;;5039070;28;20169;-95
2023/06/25 10:34:52;;;;;;;5.82;4.13;;;27.50;99.90;;;;;;5040353;28;20168;-95
2023/06/25 10:37:18;;;;;;;6.45;4.05;;;27.60;1.00;;;;;;5040846;28;20167;-95
2023/06/25 10:39:43;;;;;;;4.93;4.13;;;27.40;1.00;;;;;;5040184;28;20192;-94
2023/06/25 10:42:11;;;;;;;5.53;3.95;;;27.70;99.90;;;;;;5040438;28;20164;-93
2023/06/25 10:44:36;;;;;;;4.63;4.07;;;27.80;1.00;;;;;;5057521;28;20231;-95
2023/06/25 10:47:09;;;;;;;4.60;4.20;;;27.70;1.00;;;;;;5036253;28;20163;-93
2023/06/25 10:49:35;;;;;;;5.85;4.05;;;27.90;99.90;;;;;;5040758;28;20239;-94
2023/06/25 10:52:02;;;;;;;4.30;3.75;;;28.00;94.10;;;;;;5040340;28;20244;-95
2023/06/25 10:54:28;;;;;;;4.20;3.80;;;27.90;1.00;;;;;;5040357;28;20172;-95
2023/06/25 10:57:12;;;;;;;7.35;4.30;;;27.90;1.00;;;;;;5039552;28;20212;-94
2023/06/25 10:59:38;;;;;;;5.10;4.30;;;27.90;1.00;;;;;;5032193;28;20234;-94
2023/06/25 11:02:14;;;;;;;4.80;3.78;;;28.00;1.00;;;;;;5035189;28;20169;-95
2023/06/25 11:04:41;;;;;;;4.28;3.88;;;28.10;43.80;;;;;;5043824;28;20161;-94
2023/06/25 11:07:11;;;;;;;4.10;3.70;;;28.10;1.00;;;;;;5043706;28;20231;-95
2023/06/25 11:09:37;;;;;;;4.72;4.05;;;28.20;1.00;;;;;;5027635;28;20200;-93
2023/06/25 11:12:05;;;;;;;5.25;3.72;;;28.10;1.00;;;;;;5019400;28;20219;-93
2023/06/25 11:14:31;;;;;;;4.75;4.03;;;28.20;1.00;;;;;;5019397;28;20176;-93
2023/06/25 11:16:56;;;;;;;4.55;3.83;;;28.40;1.00;;;;;;5019400;28;20208;-93
2023/06/25 11:19:24;;;;;;;4.55;3.30;;;28.60;1.00;;;;;;5019624;28;20188;-93
2023/06/25 11:21:50;;;;;;;4.28;3.88;;;28.40;1.00;;;;;;5019750;28;20177;-93
2023/06/25 11:24:16;;;;;;;6.07;4.38;;;28.40;1.00;;;;;;5019591;28;20183;-93
2023/06/25 11:26:43;;;;;;;5.88;3.85;;;28.50;99.90;;;;;;5019445;28;20176;-93
2023/06/25 11:29:10;;;;;;;7.57;4.00;;;28.50;98.00;;;;;;5028716;28;20180;-93
2023/06/25 11:31:52;;;;;;;4.50;3.95;;;28.60;99.90;;;;;;5035601;28;20185;-96
2023/06/25 11:34:25;;;;;;;3.92;3.45;;;28.70;99.90;;;;;;5040367;28;20173;-94
2023/06/25 11:36:51;;;;;;;4.15;3.53;;;28.70;99.90;;;;;;5017304;28;20205;-92
2023/06/25 11:39:17;;;;;;;5.88;4.00;;;28.70;99.90;;;;;;5017222;28;20251;-93
2023/06/25 11:41:43;;;;;;;4.30;3.90;;;28.70;99.90;;;;;;5022381;28;20188;-93
2023/06/25 11:44:19;;;;;;;6.43;3.85;;;28.80;99.90;;;;;;5035387;28;20268;-93
2023/06/25 11:46:51;;;;;;;4.70;4.30;;;28.80;99.90;;;;;;5019260;28;20302;-93
2023/06/25 11:49:18;;;;;;;5.18;4.47;;;28.90;1.00;;;;;;5035811;28;20204;-93
2023/06/25 11:51:44;;;;;;;5.43;3.75;;;28.90;99.90;;;;;;5035692;28;20211;-93
2023/06/25 11:54:10;;;;;;;4.40;3.83;;;29.00;1.00;;;;;;5023489;28;20189;-93
2023/06/25 11:56:36;;;;;;;5.78;4.38;;;29.00;99.90;;;;;;5015526;28;20213;-92
2023/06/25 11:59:01;;;;;;;4.05;3.58;;;28.90;1.00;;;;;;5015784;28;20572;-93
2023/06/25 12:01:29;;;;;;;4.47;4.07;;;28.90;1.00;;;;;;5027804;28;20169;-94
2023/06/25 12:03:55;;;;;;;3.92;3.63;;;29.10;1.00;;;;;;5038459;28;20176;-94
2023/06/25 12:06:21;;;;;;;4.88;3.90;;;29.00;99.90;;;;;;5048216;28;20172;-94
2023/06/25 12:08:47;;;;;;;4.35;3.80;;;29.00;99.90;;;;;;5051528;28;20188;-94
2023/06/25 12:11:13;;;;;;;4.57;4.05;;;29.20;99.90;;;;;;5054940;28;20634;-94
2023/06/25 12:13:38;;;;;;;4.72;4.20;;;29.20;1.00;;;;;;5050511;28;20184;-95
2023/06/25 12:16:04;;;;;;;4.72;3.88;;;29.30;12.40;;;;;;5059121;28;20200;-95
2023/06/25 12:18:29;;;;;;;4.28;3.85;;;29.40;99.90;;;;;;5058336;28;20185;-95
2023/06/25 12:20:55;;;;;;;9.48;3.67;;;29.60;99.90;;;;;;5046847;28;20207;-94
2023/06/25 12:23:20;;;;;;;4.97;3.92;;;29.60;1.00;;;;;;5038910;28;20165;-95
2023/06/25 12:25:46;;;;;;;5.13;3.67;;;29.50;1.00;;;;;;5038854;28;20228;-95
2023/06/25 12:28:11;;;;;;;4.53;4.13;;;29.60;20.00;;;;;;5037518;28;20192;-94
2023/06/25 12:30:37;;;;;;;4.70;3.90;;;29.50;1.00;;;;;;5044998;28;20195;-95
2023/06/25 12:33:03;;;;;;;6.18;4.10;;;29.60;1.00;;;;;;5058048;28;20232;-96
2023/06/25 12:35:28;;;;;;;4.95;4.03;;;29.60;1.00;;;;;;5055083;28;20242;-94
2023/06/25 12:37:54;;;;;;;3.72;3.38;;;29.50;1.00;;;;;;5058678;28;20181;-94
2023/06/25 12:40:19;;;;;;;4.70;3.88;;;29.60;1.00;;;;;;5046297;28;20193;-93
2023/06/25 12:42:45;;;;;;;5.78;4.10;;;29.80;99.90;;;;;;5027514;28;20199;-94
2023/06/25 12:45:10;;;;;;;5.57;3.40;;;29.80;99.90;;;;;;5027881;28;20188;-94
2023/06/25 12:47:36;;;;;;;8.43;4.15;;;29.90;99.90;;;;;;5019015;28;20183;-94
2023/06/25 12:50:01;;;;;;;4.28;3.45;;;29.90;1.00;;;;;;5017999;28;20196;-93